Terminal Aerodrome Forecast
Issued by NWS

Current Version | Previous Version | Text Only | Print | Product List | Glossary On
Versions: 1 2 3 4 5 6 7 8 9 10 11 12 13 14 15 16 17 18 19 20 21 22 23 24
000
FTUS45 KREV 292327
TAFTRK
TAF
KTRK 292327Z 3000/3024 30009KT P6SM FEW100 BKN140
     FM300100 22013G25KT P6SM VCTS SCT060CB BKN120
     FM300200 28011KT P6SM SCT120
     FM300400 VRB03KT P6SM SCT140
     FM302100 26007KT P6SM VCTS SCT060CB BKN100=

USA.gov is the U.S. government's official web portal to all federal, state and local government web resources and services.